Time;durP1;ratioP1;P1;durP2;ratioP2;P2;SDS_P1;SDS_P2;PMS_P1;PMS_P2;Temp;Humidity;BMP_temperature;BMP_pressure;BME280_temperature;BME280_humidity;BME280_pressure;Samples;Min_cycle;Max_cycle;Signal;HPM_P1;HPM_P2
2021/03/16 00:00:57;;;;;;;1.60;1.50;;;;;;;;;;5058097;28;20074;-43
2021/03/16 00:03:23;;;;;;;2.88;1.60;;;;;;;;;;5056921;28;20059;-44
2021/03/16 00:05:49;;;;;;;2.65;1.60;;;;;;;;;;5067299;28;20024;-43
2021/03/16 00:08:15;;;;;;;2.28;1.58;;;;;;;;;;5060715;28;20115;-43
2021/03/16 00:10:41;;;;;;;1.98;1.50;;;;;;;;;;5060206;28;20112;-43
2021/03/16 00:13:07;;;;;;;2.40;1.80;;;;;;;;;;5059626;28;20021;-43
2021/03/16 00:15:33;;;;;;;2.72;1.50;;;;;;;;;;5056927;28;20485;-43
2021/03/16 00:18:01;;;;;;;4.93;2.15;;;;;;;;;;5070903;28;20044;-45
2021/03/16 00:20:27;;;;;;;2.47;1.95;;;;;;;;;;5060126;28;20104;-43
2021/03/16 00:22:53;;;;;;;2.40;2.10;;;;;;;;;;5059126;28;20112;-44
2021/03/16 00:25:19;;;;;;;7.88;2.25;;;;;;;;;;5064068;28;20108;-44
2021/03/16 00:27:45;;;;;;;4.00;2.35;;;;;;;;;;5054159;28;20388;-43
2021/03/16 00:30:12;;;;;;;2.67;2.30;;;;;;;;;;5069310;28;20032;-47
2021/03/16 00:32:38;;;;;;;2.40;2.08;;;;;;;;;;5056292;28;20158;-46
2021/03/16 00:35:04;;;;;;;6.10;3.20;;;;;;;;;;5056951;28;20032;-43
2021/03/16 00:37:30;;;;;;;7.05;3.47;;;;;;;;;;5062982;28;20104;-44
2021/03/16 00:39:56;;;;;;;6.15;3.20;;;;;;;;;;5064958;28;20444;-44
2021/03/16 00:42:22;;;;;;;6.65;3.78;;;;;;;;;;5066502;28;20376;-44
2021/03/16 00:44:48;;;;;;;4.03;3.33;;;;;;;;;;5058332;28;20029;-43
2021/03/16 00:47:14;;;;;;;7.95;4.18;;;;;;;;;;5055010;28;20048;-43
2021/03/16 00:49:40;;;;;;;10.43;3.88;;;;;;;;;;5065659;28;20037;-44
2021/03/16 00:52:06;;;;;;;7.55;4.30;;;;;;;;;;5060658;28;20035;-46
2021/03/16 00:54:32;;;;;;;6.53;4.13;;;;;;;;;;5057724;28;20052;-43
2021/03/16 00:56:58;;;;;;;8.80;4.07;;;;;;;;;;5057734;28;20500;-44
2021/03/16 00:59:24;;;;;;;6.20;4.38;;;;;;;;;;5062965;28;20020;-43
2021/03/16 01:01:50;;;;;;;7.68;3.95;;;;;;;;;;5061553;28;20032;-44
2021/03/16 01:04:16;;;;;;;5.47;3.90;;;;;;;;;;5056205;28;20064;-45
2021/03/16 01:06:42;;;;;;;7.90;3.63;;;;;;;;;;5061933;28;20110;-43
2021/03/16 01:09:08;;;;;;;7.20;4.13;;;;;;;;;;5067112;28;20043;-43
2021/03/16 01:11:34;;;;;;;6.38;3.75;;;;;;;;;;5064690;28;20033;-43
2021/03/16 01:14:00;;;;;;;7.40;3.70;;;;;;;;;;5060633;28;20025;-44
2021/03/16 01:16:26;;;;;;;7.15;3.72;;;;;;;;;;5060506;28;20067;-43
2021/03/16 01:18:52;;;;;;;5.20;3.28;;;;;;;;;;5056067;28;20397;-46
2021/03/16 01:21:18;;;;;;;7.55;3.13;;;;;;;;;;5058289;28;20032;-43
2021/03/16 01:23:44;;;;;;;4.50;3.15;;;;;;;;;;5055445;28;20067;-44
2021/03/16 01:26:10;;;;;;;5.00;2.85;;;;;;;;;;5058381;28;20461;-43
2021/03/16 01:28:36;;;;;;;5.28;2.78;;;;;;;;;;5065018;28;20027;-44
2021/03/16 01:31:02;;;;;;;5.55;2.97;;;;;;;;;;5056953;28;20040;-42
2021/03/16 01:33:29;;;;;;;4.93;2.97;;;;;;;;;;5062088;28;20047;-44
2021/03/16 01:35:55;;;;;;;6.00;4.00;;;;;;;;;;5062254;28;20033;-43
2021/03/16 01:38:21;;;;;;;8.00;2.92;;;;;;;;;;5060666;28;20091;-44
2021/03/16 01:40:47;;;;;;;4.72;3.08;;;;;;;;;;5060828;28;20024;-45
2021/03/16 01:43:14;;;;;;;4.07;2.70;;;;;;;;;;5052095;28;20632;-43
2021/03/16 01:45:41;;;;;;;4.25;2.53;;;;;;;;;;5058824;28;20037;-44
2021/03/16 01:48:07;;;;;;;6.28;2.95;;;;;;;;;;5059031;28;20031;-43
2021/03/16 01:50:34;;;;;;;5.18;2.60;;;;;;;;;;5068447;28;20407;-43
2021/03/16 01:53:01;;;;;;;3.25;2.60;;;;;;;;;;5062459;28;20100;-44
2021/03/16 01:55:28;;;;;;;5.88;2.88;;;;;;;;;;5057130;28;20104;-43
2021/03/16 01:57:54;;;;;;;4.32;2.60;;;;;;;;;;5067369;28;20073;-43
2021/03/16 02:00:20;;;;;;;3.42;2.50;;;;;;;;;;5058989;28;20021;-46
2021/03/16 02:02:47;;;;;;;6.30;2.90;;;;;;;;;;5055369;28;20031;-43
2021/03/16 02:05:13;;;;;;;4.80;2.67;;;;;;;;;;5053341;28;20041;-43
2021/03/16 02:08:00;;;;;;;5.00;2.95;;;;;;;;;;5055386;28;20353;-44
2021/03/16 02:10:33;;;;;;;5.63;2.97;;;;;;;;;;5059481;28;20116;-43
2021/03/16 02:13:19;;;;;;;6.13;3.03;;;;;;;;;;5057542;28;20021;-43
2021/03/16 02:15:47;;;;;;;6.75;3.10;;;;;;;;;;5059904;28;20025;-44
2021/03/16 02:18:15;;;;;;;5.18;2.35;;;;;;;;;;5064020;28;20036;-43
2021/03/16 02:20:46;;;;;;;3.25;2.45;;;;;;;;;;5062314;28;20120;-44
2021/03/16 02:23:16;;;;;;;6.75;2.72;;;;;;;;;;5060556;28;20122;-43
2021/03/16 02:25:57;;;;;;;5.07;2.80;;;;;;;;;;5064256;28;20046;-45
2021/03/16 02:28:29;;;;;;;6.32;2.83;;;;;;;;;;5063976;28;20028;-43
2021/03/16 02:30:55;;;;;;;3.58;2.30;;;;;;;;;;5064146;28;20365;-43
2021/03/16 02:33:26;;;;;;;2.90;2.40;;;;;;;;;;5057112;28;20119;-42
2021/03/16 02:35:52;;;;;;;7.13;2.58;;;;;;;;;;5057271;28;20055;-43
2021/03/16 02:38:20;;;;;;;3.95;2.40;;;;;;;;;;5053503;28;20036;-43
2021/03/16 02:40:48;;;;;;;5.75;2.80;;;;;;;;;;5057504;28;20699;-44
2021/03/16 02:43:15;;;;;;;4.88;2.40;;;;;;;;;;5055148;28;20039;-44
2021/03/16 02:45:41;;;;;;;4.35;2.60;;;;;;;;;;5060946;28;20068;-44
2021/03/16 02:48:08;;;;;;;2.90;2.35;;;;;;;;;;5055734;28;20120;-43
2021/03/16 02:50:34;;;;;;;3.78;2.72;;;;;;;;;;5056519;28;20124;-43
2021/03/16 02:53:00;;;;;;;4.75;2.70;;;;;;;;;;5057500;28;20407;-44
2021/03/16 02:55:27;;;;;;;5.68;2.58;;;;;;;;;;5054468;28;20029;-44
2021/03/16 02:57:54;;;;;;;3.83;2.50;;;;;;;;;;5060022;28;20086;-44
2021/03/16 03:00:20;;;;;;;7.65;2.65;;;;;;;;;;5062628;28;20049;-43
2021/03/16 03:02:48;;;;;;;8.10;2.65;;;;;;;;;;5061773;28;20025;-43
2021/03/16 03:05:14;;;;;;;4.68;2.40;;;;;;;;;;5062128;28;20033;-43
2021/03/16 03:07:41;;;;;;;7.15;2.25;;;;;;;;;;5051246;28;20028;-43
2021/03/16 03:10:08;;;;;;;6.85;2.40;;;;;;;;;;5057236;28;20021;-42
2021/03/16 03:12:34;;;;;;;5.00;2.55;;;;;;;;;;5061696;28;20079;-44
2021/03/16 03:15:00;;;;;;;5.65;2.30;;;;;;;;;;5059056;28;20048;-43
2021/03/16 03:17:26;;;;;;;3.72;1.90;;;;;;;;;;5061352;28;20021;-43
2021/03/16 03:19:52;;;;;;;4.80;2.17;;;;;;;;;;5052732;28;20029;-43
2021/03/16 03:22:27;;;;;;;7.35;2.80;;;;;;;;;;5061715;28;20113;-45
2021/03/16 03:24:58;;;;;;;8.55;2.53;;;;;;;;;;5052590;28;20036;-44
2021/03/16 03:27:25;;;;;;;7.88;2.38;;;;;;;;;;5059937;28;20179;-45
2021/03/16 03:29:53;;;;;;;3.85;2.20;;;;;;;;;;5067526;28;20113;-44
2021/03/16 03:32:23;;;;;;;3.83;2.08;;;;;;;;;;5059003;28;20076;-45
2021/03/16 03:34:50;;;;;;;3.10;2.10;;;;;;;;;;5058484;28;20052;-43
2021/03/16 03:37:17;;;;;;;6.25;2.00;;;;;;;;;;5056283;28;20032;-45
2021/03/16 03:39:43;;;;;;;6.38;2.58;;;;;;;;;;5057753;28;20465;-44
2021/03/16 03:42:10;;;;;;;4.78;2.30;;;;;;;;;;5070873;28;20534;-44
2021/03/16 03:44:39;;;;;;;4.30;2.35;;;;;;;;;;5057725;28;20052;-43
2021/03/16 03:47:06;;;;;;;6.75;2.35;;;;;;;;;;5055899;28;20029;-44
2021/03/16 03:49:33;;;;;;;6.88;2.78;;;;;;;;;;5070824;28;20020;-44
2021/03/16 03:51:59;;;;;;;7.25;2.40;;;;;;;;;;5061119;28;20712;-44
2021/03/16 03:54:26;;;;;;;5.95;2.50;;;;;;;;;;5055477;28;20017;-44
2021/03/16 03:56:52;;;;;;;5.45;2.38;;;;;;;;;;5064800;28;20040;-44
2021/03/16 03:59:19;;;;;;;2.90;2.10;;;;;;;;;;5071372;28;20074;-44
2021/03/16 04:01:45;;;;;;;6.47;2.15;;;;;;;;;;5066320;28;20358;-43
2021/03/16 04:04:11;;;;;;;7.40;2.67;;;;;;;;;;5061500;28;20040;-47
2021/03/16 04:06:38;;;;;;;6.40;2.92;;;;;;;;;;5057017;28;20064;-44
2021/03/16 04:09:04;;;;;;;4.55;2.17;;;;;;;;;;5060570;28;20193;-43
2021/03/16 04:11:30;;;;;;;3.83;2.10;;;;;;;;;;5071318;28;20056;-44
2021/03/16 04:13:57;;;;;;;4.10;2.35;;;;;;;;;;5060735;28;20025;-46
2021/03/16 04:16:24;;;;;;;5.32;2.40;;;;;;;;;;5057723;28;20104;-44
2021/03/16 04:18:52;;;;;;;9.90;2.53;;;;;;;;;;5064098;28;20078;-44
2021/03/16 04:21:18;;;;;;;5.45;2.20;;;;;;;;;;5067889;28;20063;-44
2021/03/16 04:23:44;;;;;;;6.25;2.53;;;;;;;;;;5068437;28;20036;-43
2021/03/16 04:26:10;;;;;;;2.85;2.10;;;;;;;;;;5062627;28;20035;-45
2021/03/16 04:28:36;;;;;;;6.03;2.63;;;;;;;;;;5064238;28;20115;-43
2021/03/16 04:31:02;;;;;;;4.22;2.22;;;;;;;;;;5063356;28;20033;-44
2021/03/16 04:33:28;;;;;;;5.15;2.85;;;;;;;;;;5066954;28;20040;-44
2021/03/16 04:35:54;;;;;;;9.02;3.20;;;;;;;;;;5055917;28;20055;-43
2021/03/16 04:38:20;;;;;;;5.38;2.55;;;;;;;;;;5064913;28;20025;-44
2021/03/16 04:40:46;;;;;;;13.32;2.78;;;;;;;;;;5068968;28;20364;-45
2021/03/16 04:43:12;;;;;;;6.85;3.08;;;;;;;;;;5066292;28;20037;-44
2021/03/16 04:45:39;;;;;;;4.65;2.58;;;;;;;;;;5059761;28;20104;-44
2021/03/16 04:48:05;;;;;;;3.92;2.45;;;;;;;;;;5057396;28;20357;-44
2021/03/16 04:50:31;;;;;;;5.90;2.90;;;;;;;;;;5057874;28;20088;-44
2021/03/16 04:52:57;;;;;;;7.47;3.08;;;;;;;;;;5065158;28;20052;-44
2021/03/16 04:55:23;;;;;;;9.73;2.65;;;;;;;;;;5066114;28;20461;-44
2021/03/16 04:57:49;;;;;;;8.57;2.38;;;;;;;;;;5059176;28;20020;-44
2021/03/16 05:00:15;;;;;;;6.85;2.70;;;;;;;;;;5056927;28;20020;-44
2021/03/16 05:02:41;;;;;;;5.72;2.53;;;;;;;;;;5060057;28;20115;-44
2021/03/16 05:05:08;;;;;;;4.65;2.42;;;;;;;;;;5068201;28;20032;-44
2021/03/16 05:07:34;;;;;;;4.32;2.45;;;;;;;;;;5067533;28;20100;-44
2021/03/16 05:10:00;;;;;;;9.02;2.63;;;;;;;;;;5064365;28;20028;-43
2021/03/16 05:12:26;;;;;;;4.70;2.58;;;;;;;;;;5063833;28;20365;-43
2021/03/16 05:14:52;;;;;;;5.03;2.72;;;;;;;;;;5060597;28;20174;-43
2021/03/16 05:17:18;;;;;;;7.88;2.60;;;;;;;;;;5065732;28;20371;-44
2021/03/16 05:19:44;;;;;;;6.93;2.65;;;;;;;;;;5057325;28;20111;-45
2021/03/16 05:22:10;;;;;;;3.80;2.42;;;;;;;;;;5057055;28;20024;-43
2021/03/16 05:24:36;;;;;;;6.00;2.70;;;;;;;;;;5060698;28;20037;-44
2021/03/16 05:27:02;;;;;;;6.88;2.30;;;;;;;;;;5059682;28;20078;-44
2021/03/16 05:29:28;;;;;;;9.00;2.42;;;;;;;;;;5065114;28;20061;-43
2021/03/16 05:31:54;;;;;;;5.22;2.15;;;;;;;;;;5057401;28;20133;-43
2021/03/16 05:34:20;;;;;;;4.85;2.25;;;;;;;;;;5056808;28;20028;-44
2021/03/16 05:36:46;;;;;;;5.13;2.33;;;;;;;;;;5058496;28;20033;-43
2021/03/16 05:39:12;;;;;;;8.52;3.55;;;;;;;;;;5060780;28;20491;-43
2021/03/16 05:41:40;;;;;;;6.72;2.58;;;;;;;;;;5055712;28;20064;-43
2021/03/16 05:44:07;;;;;;;5.20;2.72;;;;;;;;;;5058093;28;20174;-44
2021/03/16 05:46:33;;;;;;;6.93;3.00;;;;;;;;;;5066419;28;20099;-45
2021/03/16 05:49:03;;;;;;;8.82;3.15;;;;;;;;;;5060466;28;20056;-44
2021/03/16 05:51:29;;;;;;;6.30;2.70;;;;;;;;;;5055778;28;20472;-43
2021/03/16 05:53:55;;;;;;;9.15;2.60;;;;;;;;;;5054085;28;20453;-44
2021/03/16 05:56:21;;;;;;;7.97;3.15;;;;;;;;;;5057057;28;20166;-45
2021/03/16 05:58:47;;;;;;;12.00;3.47;;;;;;;;;;5058706;28;20473;-45
2021/03/16 06:01:15;;;;;;;6.93;2.97;;;;;;;;;;5057351;28;20032;-44
2021/03/16 06:03:41;;;;;;;9.57;4.00;;;;;;;;;;5064308;28;20027;-44
2021/03/16 06:06:08;;;;;;;5.55;2.83;;;;;;;;;;5054812;28;20033;-44
2021/03/16 06:08:34;;;;;;;9.00;3.35;;;;;;;;;;5056201;28;20033;-44
2021/03/16 06:11:00;;;;;;;9.20;5.05;;;;;;;;;;5055943;28;20075;-43
2021/03/16 06:13:26;;;;;;;5.88;2.65;;;;;;;;;;5058074;28;20453;-44
2021/03/16 06:15:53;;;;;;;10.20;3.13;;;;;;;;;;5054998;28;20021;-43
2021/03/16 06:18:28;;;;;;;6.47;2.70;;;;;;;;;;5057634;28;20494;-43
2021/03/16 06:21:04;;;;;;;10.95;3.75;;;;;;;;;;5053846;28;20039;-44
2021/03/16 06:23:31;;;;;;;8.35;2.90;;;;;;;;;;5057731;28;20024;-44
2021/03/16 06:25:57;;;;;;;8.15;2.88;;;;;;;;;;5060269;28;20039;-44
2021/03/16 06:28:30;;;;;;;5.43;3.05;;;;;;;;;;5062524;28;20045;-44
2021/03/16 06:30:56;;;;;;;5.20;2.35;;;;;;;;;;5059067;28;20060;-44
2021/03/16 06:33:23;;;;;;;7.90;3.10;;;;;;;;;;5062571;28;20146;-43
2021/03/16 06:35:58;;;;;;;7.75;2.90;;;;;;;;;;5057468;28;20025;-43
2021/03/16 06:38:24;;;;;;;7.13;2.90;;;;;;;;;;5061652;28;20044;-44
2021/03/16 06:40:50;;;;;;;10.23;3.30;;;;;;;;;;5057103;28;20047;-44
2021/03/16 06:43:16;;;;;;;5.07;2.80;;;;;;;;;;5063850;28;20028;-44
2021/03/16 06:45:42;;;;;;;4.90;2.25;;;;;;;;;;5060431;28;20025;-43
2021/03/16 06:48:15;;;;;;;6.72;3.15;;;;;;;;;;5057427;28;20043;-43
2021/03/16 06:50:41;;;;;;;5.97;2.90;;;;;;;;;;5059789;28;20079;-43
2021/03/16 06:53:14;;;;;;;5.32;2.45;;;;;;;;;;5060144;28;20032;-44
2021/03/16 06:55:50;;;;;;;5.95;2.60;;;;;;;;;;5062184;28;20025;-44
2021/03/16 06:58:16;;;;;;;5.35;2.60;;;;;;;;;;5062709;28;20415;-44
2021/03/16 07:00:42;;;;;;;5.47;2.33;;;;;;;;;;5058911;28;20025;-44
2021/03/16 07:03:11;;;;;;;7.20;2.40;;;;;;;;;;5058383;28;20159;-44
2021/03/16 07:05:37;;;;;;;6.15;2.63;;;;;;;;;;5060092;28;20028;-44
2021/03/16 07:08:06;;;;;;;7.32;2.70;;;;;;;;;;5059651;28;20041;-44
2021/03/16 07:10:32;;;;;;;6.35;2.80;;;;;;;;;;5058760;28;20101;-44
2021/03/16 07:12:58;;;;;;;5.40;2.58;;;;;;;;;;5063871;28;20124;-43
2021/03/16 07:15:24;;;;;;;5.70;2.75;;;;;;;;;;5066293;28;20048;-44
2021/03/16 07:17:50;;;;;;;7.72;3.58;;;;;;;;;;5069177;28;20067;-44
2021/03/16 07:20:16;;;;;;;7.68;2.53;;;;;;;;;;5065694;28;20025;-44
2021/03/16 07:22:49;;;;;;;7.07;3.20;;;;;;;;;;5066950;28;20064;-44
2021/03/16 07:25:16;;;;;;;4.78;2.35;;;;;;;;;;5068389;28;20040;-43
2021/03/16 07:27:42;;;;;;;11.38;2.92;;;;;;;;;;5062642;28;20044;-44
2021/03/16 07:30:09;;;;;;;6.38;2.67;;;;;;;;;;5066855;28;20573;-43
2021/03/16 07:32:35;;;;;;;5.78;2.47;;;;;;;;;;5067537;28;20067;-43
2021/03/16 07:35:01;;;;;;;7.32;2.50;;;;;;;;;;5065945;28;20538;-44
2021/03/16 07:37:28;;;;;;;5.18;2.33;;;;;;;;;;5058055;28;20561;-43
2021/03/16 07:39:55;;;;;;;7.22;2.83;;;;;;;;;;5057866;28;20036;-43
2021/03/16 07:42:21;;;;;;;6.30;2.55;;;;;;;;;;5065707;28;20067;-43
2021/03/16 07:44:47;;;;;;;6.68;2.83;;;;;;;;;;5066251;28;20544;-43
2021/03/16 07:47:13;;;;;;;6.38;2.50;;;;;;;;;;5063920;28;20434;-46
2021/03/16 07:49:40;;;;;;;7.72;2.60;;;;;;;;;;5061567;28;20112;-43
2021/03/16 07:52:19;;;;;;;7.45;2.55;;;;;;;;;;5068695;28;20107;-43
2021/03/16 07:54:49;;;;;;;7.80;3.40;;;;;;;;;;5056414;28;20483;-44
2021/03/16 07:57:29;;;;;;;5.85;2.50;;;;;;;;;;5062427;28;20032;-43
2021/03/16 08:00:02;;;;;;;4.40;2.42;;;;;;;;;;5057316;28;20037;-45
2021/03/16 08:02:29;;;;;;;5.90;2.60;;;;;;;;;;5054794;28;20035;-45
2021/03/16 08:04:55;;;;;;;6.25;2.45;;;;;;;;;;5073356;28;20040;-44
2021/03/16 08:07:22;;;;;;;6.40;2.72;;;;;;;;;;5066350;28;20086;-43
2021/03/16 08:09:50;;;;;;;4.45;2.45;;;;;;;;;;5064923;28;20029;-43
2021/03/16 08:12:18;;;;;;;5.45;2.58;;;;;;;;;;5066703;28;20079;-43
2021/03/16 08:14:44;;;;;;;3.65;2.00;;;;;;;;;;5054860;28;20104;-43
2021/03/16 08:17:10;;;;;;;5.18;2.33;;;;;;;;;;5065471;28;20020;-43
2021/03/16 08:19:37;;;;;;;5.68;2.10;;;;;;;;;;5069114;28;20072;-43
2021/03/16 08:22:03;;;;;;;6.60;2.95;;;;;;;;;;5057386;28;20036;-43
2021/03/16 08:24:37;;;;;;;7.90;2.42;;;;;;;;;;5061338;28;20040;-43
2021/03/16 08:27:04;;;;;;;6.82;2.28;;;;;;;;;;5068948;28;20451;-43
2021/03/16 08:29:31;;;;;;;6.40;2.70;;;;;;;;;;5056836;28;20771;-43
2021/03/16 08:31:58;;;;;;;5.95;2.20;;;;;;;;;;5060326;28;20033;-44
2021/03/16 08:34:25;;;;;;;4.20;2.35;;;;;;;;;;5065935;28;20103;-43
2021/03/16 08:36:51;;;;;;;8.48;2.70;;;;;;;;;;5067815;28;20071;-43
2021/03/16 08:39:21;;;;;;;6.45;2.40;;;;;;;;;;5064605;28;20025;-43
2021/03/16 08:41:57;;;;;;;13.10;2.58;;;;;;;;;;5057667;28;20087;-43
2021/03/16 08:44:24;;;;;;;7.05;2.50;;;;;;;;;;5070789;28;20472;-43
2021/03/16 08:46:50;;;;;;;3.53;2.08;;;;;;;;;;5062395;28;20036;-43
2021/03/16 08:49:17;;;;;;;6.43;2.28;;;;;;;;;;5071328;28;20025;-43
2021/03/16 08:51:43;;;;;;;5.82;2.20;;;;;;;;;;5059522;28;20036;-43
2021/03/16 08:54:09;;;;;;;4.30;2.05;;;;;;;;;;5057170;28;20468;-43
2021/03/16 08:56:35;;;;;;;5.47;2.10;;;;;;;;;;5058520;28;20025;-43
2021/03/16 08:59:04;;;;;;;5.53;2.30;;;;;;;;;;5058320;28;20025;-43
2021/03/16 09:01:31;;;;;;;5.55;2.20;;;;;;;;;;5079212;28;20035;-43
2021/03/16 09:04:07;;;;;;;4.78;2.10;;;;;;;;;;5067049;28;20484;-43
2021/03/16 09:06:34;;;;;;;6.25;2.08;;;;;;;;;;5064115;28;20086;-44
2021/03/16 09:09:00;;;;;;;9.57;2.65;;;;;;;;;;5058055;28;20544;-43
2021/03/16 09:11:30;;;;;;;4.60;1.63;;;;;;;;;;5059524;28;20036;-43
2021/03/16 09:14:15;;;;;;;7.75;2.33;;;;;;;;;;5057842;28;20468;-43
2021/03/16 09:16:45;;;;;;;4.72;1.70;;;;;;;;;;5064851;28;20047;-43
2021/03/16 09:19:13;;;;;;;4.38;1.52;;;;;;;;;;5070189;28;20028;-43
2021/03/16 09:21:48;;;;;;;2.63;1.50;;;;;;;;;;5062610;28;20044;-43
2021/03/16 09:24:15;;;;;;;2.50;1.42;;;;;;;;;;5059647;28;20047;-43
2021/03/16 09:26:41;;;;;;;5.22;1.52;;;;;;;;;;5061870;28;20025;-44
2021/03/16 09:29:07;;;;;;;5.35;1.45;;;;;;;;;;5061936;28;20032;-43
2021/03/16 09:31:34;;;;;;;7.68;1.70;;;;;;;;;;5061363;28;20037;-43
2021/03/16 09:34:00;;;;;;;7.22;1.83;;;;;;;;;;5070429;28;20021;-42
2021/03/16 09:36:27;;;;;;;4.00;1.50;;;;;;;;;;5057606;28;20120;-43
2021/03/16 09:38:59;;;;;;;6.53;1.50;;;;;;;;;;5082496;28;20039;-43
2021/03/16 09:41:26;;;;;;;4.05;2.10;;;;;;;;;;5064355;28;20080;-43
2021/03/16 09:43:52;;;;;;;4.57;1.42;;;;;;;;;;5065128;28;20039;-43
2021/03/16 09:46:18;;;;;;;4.45;1.52;;;;;;;;;;5066650;28;20457;-43
2021/03/16 09:48:52;;;;;;;5.30;1.73;;;;;;;;;;5068914;28;20113;-43
2021/03/16 09:51:19;;;;;;;5.65;1.70;;;;;;;;;;5065856;28;20389;-44
2021/03/16 09:53:48;;;;;;;2.40;1.38;;;;;;;;;;5059983;28;20542;-43
2021/03/16 09:56:14;;;;;;;4.65;1.60;;;;;;;;;;5062530;28;20017;-42
2021/03/16 09:58:47;;;;;;;4.22;1.70;;;;;;;;;;5062333;28;20041;-43
2021/03/16 10:01:13;;;;;;;3.63;1.65;;;;;;;;;;5072871;28;20058;-44
2021/03/16 10:03:39;;;;;;;2.33;1.60;;;;;;;;;;5059972;28;20032;-42
2021/03/16 10:06:06;;;;;;;4.30;1.20;;;;;;;;;;5069142;28;20666;-42
2021/03/16 10:08:32;;;;;;;4.53;1.20;;;;;;;;;;5067087;28;20480;-43
2021/03/16 10:10:58;;;;;;;4.43;1.60;;;;;;;;;;5074387;28;20518;-42
2021/03/16 10:13:31;;;;;;;6.15;1.35;;;;;;;;;;5065065;28;20071;-43
2021/03/16 10:15:57;;;;;;;2.65;1.17;;;;;;;;;;5058577;28;20021;-43
2021/03/16 10:18:27;;;;;;;3.65;1.13;;;;;;;;;;5060093;28;20442;-42
2021/03/16 10:20:53;;;;;;;3.90;2.20;;;;;;;;;;5074574;28;20025;-43
2021/03/16 10:23:20;;;;;;;1.75;1.20;;;;;;;;;;5080724;28;20020;-43
2021/03/16 10:25:56;;;;;;;3.08;1.10;;;;;;;;;;5069344;28;20419;-43
2021/03/16 10:28:36;;;;;;;1.77;1.10;;;;;;;;;;5068230;28;20464;-42
2021/03/16 10:31:12;;;;;;;4.07;1.67;;;;;;;;;;5075764;28;20407;-44
2021/03/16 10:33:38;;;;;;;3.05;1.05;;;;;;;;;;5074511;28;20028;-43
2021/03/16 10:36:06;;;;;;;3.40;1.08;;;;;;;;;;5065559;28;20575;-43
2021/03/16 10:38:32;;;;;;;3.47;1.10;;;;;;;;;;5066589;28;20101;-43
2021/03/16 10:40:58;;;;;;;3.85;1.10;;;;;;;;;;5056873;28;20037;-43
2021/03/16 10:43:24;;;;;;;2.50;1.20;;;;;;;;;;5058130;28;20029;-42
2021/03/16 10:45:53;;;;;;;1.38;1.00;;;;;;;;;;5064011;28;20039;-43
2021/03/16 10:48:19;;;;;;;2.40;1.10;;;;;;;;;;5070272;28;20170;-45
2021/03/16 10:50:45;;;;;;;1.35;1.17;;;;;;;;;;5067930;28;20056;-43
2021/03/16 10:53:13;;;;;;;2.63;1.35;;;;;;;;;;5054897;28;20074;-42
2021/03/16 10:55:39;;;;;;;3.13;1.23;;;;;;;;;;5066983;28;20032;-43
2021/03/16 10:58:05;;;;;;;4.72;1.60;;;;;;;;;;5060559;28;20033;-43
2021/03/16 11:00:31;;;;;;;6.57;1.63;;;;;;;;;;5057396;28;20029;-42
2021/03/16 11:02:57;;;;;;;5.18;1.40;;;;;;;;;;5064053;28;20043;-43
2021/03/16 11:05:23;;;;;;;3.15;1.35;;;;;;;;;;5071132;28;20025;-43
2021/03/16 11:07:49;;;;;;;4.38;1.70;;;;;;;;;;5070354;28;20052;-43
2021/03/16 11:10:15;;;;;;;4.60;2.08;;;;;;;;;;5073670;28;20696;-42
2021/03/16 11:12:41;;;;;;;2.90;1.73;;;;;;;;;;5069927;28;20039;-43
2021/03/16 11:15:07;;;;;;;3.67;2.25;;;;;;;;;;5066790;28;20029;-43
2021/03/16 11:17:34;;;;;;;6.47;2.63;;;;;;;;;;5060479;28;20018;-43
2021/03/16 11:20:00;;;;;;;5.53;2.45;;;;;;;;;;5074376;28;20399;-42
2021/03/16 11:22:26;;;;;;;8.57;2.88;;;;;;;;;;5074511;28;20051;-43
2021/03/16 11:24:52;;;;;;;7.80;3.22;;;;;;;;;;5074263;28;20444;-46
2021/03/16 11:27:18;;;;;;;5.18;2.58;;;;;;;;;;5074353;28;20035;-42
2021/03/16 11:29:44;;;;;;;6.07;3.17;;;;;;;;;;5073590;28;20029;-43
2021/03/16 11:32:10;;;;;;;5.05;3.08;;;;;;;;;;5075984;28;20051;-43
2021/03/16 11:34:36;;;;;;;9.30;3.47;;;;;;;;;;5073421;28;20036;-43
2021/03/16 11:37:02;;;;;;;5.10;2.90;;;;;;;;;;5076516;28;20185;-43
2021/03/16 11:39:28;;;;;;;9.52;3.88;;;;;;;;;;5073247;28;20025;-43
2021/03/16 11:41:54;;;;;;;10.25;4.45;;;;;;;;;;5071066;28;20051;-43
2021/03/16 11:44:20;;;;;;;5.82;3.65;;;;;;;;;;5075260;28;20044;-42
2021/03/16 11:46:46;;;;;;;8.10;3.60;;;;;;;;;;5076099;28;20032;-43
2021/03/16 11:49:12;;;;;;;8.45;3.47;;;;;;;;;;5071678;28;20168;-43
2021/03/16 11:51:38;;;;;;;8.40;3.97;;;;;;;;;;5073899;28;20546;-44
2021/03/16 11:54:04;;;;;;;8.90;3.45;;;;;;;;;;5075040;28;20039;-42
2021/03/16 11:56:30;;;;;;;7.35;3.53;;;;;;;;;;5079319;28;20031;-43
2021/03/16 11:58:56;;;;;;;10.80;3.65;;;;;;;;;;5078225;28;20372;-43
2021/03/16 12:01:22;;;;;;;6.70;3.42;;;;;;;;;;5076137;28;20029;-43
2021/03/16 12:03:48;;;;;;;8.77;3.50;;;;;;;;;;5078567;28;20025;-43
2021/03/16 12:06:14;;;;;;;8.55;3.85;;;;;;;;;;5077831;28;20776;-43
2021/03/16 12:08:40;;;;;;;6.20;3.53;;;;;;;;;;5079163;28;20028;-43
2021/03/16 12:11:06;;;;;;;7.22;3.55;;;;;;;;;;5078521;28;20012;-43
2021/03/16 12:13:33;;;;;;;9.57;3.67;;;;;;;;;;5073853;28;20534;-43
2021/03/16 12:15:59;;;;;;;7.80;3.65;;;;;;;;;;5076477;28;20024;-42
2021/03/16 12:18:25;;;;;;;11.02;3.60;;;;;;;;;;5074538;28;20020;-43
2021/03/16 12:20:52;;;;;;;6.03;3.58;;;;;;;;;;5077498;28;20040;-44
2021/03/16 12:23:18;;;;;;;10.35;3.80;;;;;;;;;;5079781;28;20024;-42
2021/03/16 12:25:45;;;;;;;12.90;4.10;;;;;;;;;;5074214;28;20059;-45
2021/03/16 12:28:11;;;;;;;8.75;3.47;;;;;;;;;;5079033;28;20029;-42
2021/03/16 12:30:37;;;;;;;7.53;3.78;;;;;;;;;;5076906;28;20051;-43
2021/03/16 12:33:04;;;;;;;8.18;4.10;;;;;;;;;;5077563;28;20036;-42
2021/03/16 12:35:30;;;;;;;7.35;3.38;;;;;;;;;;5073378;28;20078;-42
2021/03/16 12:37:56;;;;;;;9.30;3.60;;;;;;;;;;5077736;28;20021;-42
2021/03/16 12:40:22;;;;;;;15.18;3.83;;;;;;;;;;5076501;28;20063;-43
2021/03/16 12:42:48;;;;;;;8.02;3.58;;;;;;;;;;5077172;28;20118;-42
2021/03/16 12:45:14;;;;;;;7.53;3.03;;;;;;;;;;5078482;28;20065;-42
2021/03/16 12:47:40;;;;;;;6.95;2.78;;;;;;;;;;5079012;28;20025;-43
2021/03/16 12:50:07;;;;;;;5.20;2.30;;;;;;;;;;5077004;28;20079;-43
2021/03/16 12:52:33;;;;;;;4.82;2.45;;;;;;;;;;5066030;28;20507;-43
2021/03/16 12:54:59;;;;;;;5.32;2.80;;;;;;;;;;5068967;28;20044;-42
2021/03/16 12:57:25;;;;;;;10.07;2.92;;;;;;;;;;5059969;28;20029;-43
2021/03/16 12:59:51;;;;;;;6.10;2.42;;;;;;;;;;5060018;28;20056;-42
2021/03/16 13:02:17;;;;;;;3.72;2.00;;;;;;;;;;5067638;28;20075;-43
2021/03/16 13:04:43;;;;;;;2.08;1.70;;;;;;;;;;5068235;28;20039;-44
2021/03/16 13:07:09;;;;;;;1.70;1.23;;;;;;;;;;5066650;28;20028;-43
2021/03/16 13:09:35;;;;;;;4.32;1.67;;;;;;;;;;5061023;28;20059;-42
2021/03/16 13:12:01;;;;;;;3.08;1.63;;;;;;;;;;5064831;28;20395;-42
2021/03/16 13:14:28;;;;;;;1.98;1.15;;;;;;;;;;5060223;28;20079;-43
2021/03/16 13:16:55;;;;;;;1.83;0.88;;;;;;;;;;5067694;28;20033;-43
2021/03/16 13:19:21;;;;;;;2.20;1.17;;;;;;;;;;5061264;28;20020;-43
2021/03/16 13:21:47;;;;;;;2.28;0.82;;;;;;;;;;5061600;28;20078;-44
2021/03/16 13:24:14;;;;;;;2.17;0.93;;;;;;;;;;5063025;28;20035;-43
2021/03/16 13:26:40;;;;;;;3.85;1.35;;;;;;;;;;5061632;28;20056;-43
2021/03/16 13:29:06;;;;;;;1.45;0.98;;;;;;;;;;5061236;28;20029;-43
2021/03/16 13:31:32;;;;;;;1.90;1.13;;;;;;;;;;5074315;28;20044;-43
2021/03/16 13:33:58;;;;;;;3.17;1.00;;;;;;;;;;5062967;28;20029;-43
2021/03/16 13:36:25;;;;;;;2.08;1.23;;;;;;;;;;5059380;28;20040;-43
2021/03/16 13:38:52;;;;;;;1.70;1.13;;;;;;;;;;5059110;28;20020;-43
2021/03/16 13:41:18;;;;;;;3.50;1.55;;;;;;;;;;5055052;28;20029;-43
2021/03/16 13:43:44;;;;;;;4.07;1.38;;;;;;;;;;5060210;28;20518;-43
2021/03/16 13:46:10;;;;;;;3.60;1.35;;;;;;;;;;5063204;28;20036;-43
2021/03/16 13:48:37;;;;;;;3.33;1.50;;;;;;;;;;5056653;28;20154;-43
2021/03/16 13:51:03;;;;;;;3.35;1.20;;;;;;;;;;5054569;28;20070;-43
2021/03/16 13:53:29;;;;;;;2.65;1.05;;;;;;;;;;5063290;28;20158;-43
2021/03/16 13:55:55;;;;;;;3.58;1.15;;;;;;;;;;5053019;28;20040;-43
2021/03/16 13:58:21;;;;;;;3.22;1.20;;;;;;;;;;5061277;28;20024;-43
2021/03/16 14:00:47;;;;;;;3.38;1.13;;;;;;;;;;5060069;28;20032;-43
2021/03/16 14:03:13;;;;;;;2.92;1.08;;;;;;;;;;5053876;28;20032;-43
2021/03/16 14:05:39;;;;;;;3.67;1.10;;;;;;;;;;5056067;28;20077;-46
2021/03/16 14:08:05;;;;;;;4.40;1.10;;;;;;;;;;5061427;28;20060;-43
2021/03/16 14:10:31;;;;;;;2.13;0.88;;;;;;;;;;5056255;28;20028;-43
2021/03/16 14:12:57;;;;;;;5.00;1.23;;;;;;;;;;5053501;28;20534;-44
2021/03/16 14:15:23;;;;;;;2.83;1.00;;;;;;;;;;5054072;28;20032;-43
2021/03/16 14:17:49;;;;;;;5.75;1.27;;;;;;;;;;5052504;28;20675;-43
2021/03/16 14:20:16;;;;;;;3.40;1.40;;;;;;;;;;5065949;28;20032;-42
2021/03/16 14:22:44;;;;;;;3.50;0.95;;;;;;;;;;5072102;28;20020;-43
2021/03/16 14:25:11;;;;;;;2.78;1.20;;;;;;;;;;5053782;28;20052;-43
2021/03/16 14:27:37;;;;;;;4.78;1.40;;;;;;;;;;5059280;28;20020;-43
2021/03/16 14:30:04;;;;;;;2.35;1.08;;;;;;;;;;5057656;28;20047;-43
2021/03/16 14:32:30;;;;;;;4.38;1.35;;;;;;;;;;5059808;28;20032;-43
2021/03/16 14:34:56;;;;;;;1.90;1.10;;;;;;;;;;5054858;28;20044;-43
2021/03/16 14:37:22;;;;;;;1.60;1.05;;;;;;;;;;5052120;28;20033;-43
2021/03/16 14:39:49;;;;;;;3.55;1.42;;;;;;;;;;5057123;28;20070;-43
2021/03/16 14:42:15;;;;;;;2.95;1.40;;;;;;;;;;5056384;28;20370;-43